Time,TemperatureF,DewpointF,PressureIn,WindDirection,WindDirectionDegrees,WindSpeedMPH,WindSpeedGustMPH,Humidity,HourlyPrecipIn,Conditions,Clouds,dailyrainin,SoftwareType,DateUTC
2013-01-10 00:01:00,21.3,19.5,30.59,North,11,0.0,0.0,92,0.00,,SKC,0.00,VWS V14.00,2013-01-10 05:01:00,
2013-01-10 00:04:00,38.2,28.7,30.19,West,273,10.7,23.4,68,0.00,,OVC,0.00,VWS V14.00,2013-01-10 05:04:00,
2013-01-10 00:09:00,38.1,28.7,30.19,West,280,5.5,23.4,69,0.00,,OVC,0.00,VWS V14.00,2013-01-10 05:09:00,
2013-01-10 00:14:00,38.2,28.9,30.20,West,278,13.2,23.4,69,0.00,,OVC,0.00,VWS V14.00,2013-01-10 05:14:00,
2013-01-10 00:19:00,37.8,28.6,30.20,SW,236,13.3,23.4,69,0.00,,OVC,0.00,VWS V14.00,2013-01-10 05:19:00,
2013-01-10 00:24:00,37.9,29.0,30.20,WSW,255,8.5,23.4,70,0.00,,OVC,0.00,VWS V14.00,2013-01-10 05:24:00,
2013-01-10 00:29:00,37.8,28.9,30.21,WSW,240,8.5,15.2,70,0.00,,OVC,0.00,VWS V14.00,2013-01-10 05:29:00,
2013-01-10 00:30:00,37.6,28.7,30.20,West,274,11.4,23.4,70,0.00,,SCT,0.00,VWS V14.00,2013-01-10 05:30:00,
2013-01-10 00:34:00,37.4,29.1,30.22,West,263,10.2,18.5,72,0.00,,OVC,0.00,VWS V14.00,2013-01-10 05:34:00,
2013-01-10 00:39:00,37.3,29.5,30.23,WSW,238,7.0,18.5,73,0.00,,OVC,0.00,VWS V14.00,2013-01-10 05:39:00,
2013-01-10 00:44:00,37.0,29.5,30.23,SW,224,9.6,18.5,74,0.00,,OVC,0.00,VWS V14.00,2013-01-10 05:44:00,
2013-01-10 00:49:00,36.6,29.5,30.23,West,266,13.2,18.5,75,0.00,,OVC,0.00,VWS V14.00,2013-01-10 05:49:00,
2013-01-10 00:54:00,36.5,29.5,30.25,WNW,292,10.3,18.5,76,0.00,,OVC,0.00,VWS V14.00,2013-01-10 05:54:00,
2013-01-10 00:59:00,36.4,29.6,30.25,WSW,255,10.3,12.9,76,0.00,,OVC,0.00,VWS V14.00,2013-01-10 05:59:00,
2013-01-10 01:00:00,36.6,29.8,30.25,SW,236,10.1,18.5,76,0.00,,SCT,0.00,VWS V14.00,2013-01-10 06:00:00,
2013-01-10 01:04:00,36.4,29.6,30.26,West,277,6.9,14.4,76,0.00,,OVC,0.00,VWS V14.00,2013-01-10 06:04:00,
2013-01-10 01:09:00,36.4,29.6,30.27,West,267,6.2,14.4,76,0.00,,OVC,0.00,VWS V14.00,2013-01-10 06:09:00,
2013-01-10 01:14:00,36.3,29.5,30.27,WSW,249,7.5,16.2,76,0.00,,OVC,0.00,VWS V14.00,2013-01-10 06:14:00,
2013-01-10 01:19:00,36.3,29.6,30.28,West,276,7.0,16.2,76,0.00,,OVC,0.00,VWS V14.00,2013-01-10 06:19:00,
2013-01-10 01:24:00,36.1,29.2,30.28,WSW,253,7.4,16.2,76,0.00,,OVC,0.00,VWS V14.00,2013-01-10 06:24:00,
2013-01-10 01:29:00,36.0,29.0,30.28,West,263,8.0,13.7,75,0.00,,OVC,0.00,VWS V14.00,2013-01-10 06:29:00,
2013-01-10 01:30:00,36.0,29.0,30.28,SW,221,10.8,16.5,75,0.00,,SCT,0.00,VWS V14.00,2013-01-10 06:30:00,
2013-01-10 01:34:00,35.9,28.7,30.29,WSW,249,7.3,15.6,75,0.00,,OVC,0.00,VWS V14.00,2013-01-10 06:34:00,
2013-01-10 01:39:00,36.0,28.8,30.30,West,264,6.0,15.6,75,0.00,,OVC,0.00,VWS V14.00,2013-01-10 06:39:00,
2013-01-10 01:44:00,36.0,28.6,30.30,West,262,9.1,15.6,74,0.00,,OVC,0.00,VWS V14.00,2013-01-10 06:44:00,
2013-01-10 01:49:00,36.0,28.4,30.31,SSW,202,10.3,15.6,74,0.00,,OVC,0.00,VWS V14.00,2013-01-10 06:49:00,
2013-01-10 01:54:00,36.2,28.4,30.31,WSW,255,6.3,15.6,73,0.00,,OVC,0.00,VWS V14.00,2013-01-10 06:54:00,
2013-01-10 01:59:00,36.0,28.0,30.32,West,259,7.0,11.1,72,0.00,,OVC,0.00,VWS V14.00,2013-01-10 06:59:00,
2013-01-10 02:00:00,36.0,28.1,30.32,SW,232,7.0,15.6,73,0.00,,SCT,0.00,VWS V14.00,2013-01-10 07:00:00,
2013-01-10 02:04:00,36.0,27.9,30.33,WSW,256,5.8,16.0,72,0.00,,OVC,0.00,VWS V14.00,2013-01-10 07:04:00,
2013-01-10 02:09:00,35.9,27.7,30.33,West,260,6.5,16.0,72,0.00,,OVC,0.00,VWS V14.00,2013-01-10 07:09:00,
2013-01-10 02:14:00,35.8,27.5,30.34,WSW,253,7.0,16.0,72,0.00,,OVC,0.00,VWS V14.00,2013-01-10 07:14:00,
2013-01-10 02:19:00,35.8,27.5,30.34,West,266,7.8,16.0,72,0.00,,OVC,0.00,VWS V14.00,2013-01-10 07:19:00,
2013-01-10 02:24:00,35.6,27.3,30.35,WSW,246,3.4,16.0,71,0.00,,OVC,0.00,VWS V14.00,2013-01-10 07:24:00,
2013-01-10 02:29:00,35.5,27.2,30.35,NW,304,3.1,9.4,71,0.00,,OVC,0.00,VWS V14.00,2013-01-10 07:29:00,
2013-01-10 02:30:00,35.6,27.2,30.35,WSW,253,8.0,16.0,71,0.00,,SCT,0.00,VWS V14.00,2013-01-10 07:30:00,
2013-01-10 02:34:00,35.6,27.1,30.35,West,264,3.4,10.3,71,0.00,,OVC,0.00,VWS V14.00,2013-01-10 07:34:00,
2013-01-10 02:39:00,35.4,26.9,30.35,West,259,6.5,11.9,71,0.00,,OVC,0.00,VWS V14.00,2013-01-10 07:39:00,
2013-01-10 02:44:00,35.2,26.7,30.36,WNW,297,7.0,11.9,71,0.00,,OVC,0.00,VWS V14.00,2013-01-10 07:44:00,
2013-01-10 02:49:00,35.2,26.7,30.36,WNW,287,7.5,12.2,71,0.00,,OVC,0.00,VWS V14.00,2013-01-10 07:49:00,
2013-01-10 02:54:00,35.1,26.7,30.36,West,263,4.6,12.2,71,0.00,,OVC,0.00,VWS V14.00,2013-01-10 07:54:00,
2013-01-10 02:59:00,35.1,26.6,30.37,West,262,8.8,10.9,71,0.00,,OVC,0.00,VWS V14.00,2013-01-10 07:59:00,
2013-01-10 03:00:00,35.1,26.7,30.37,WSW,250,4.6,12.2,71,0.00,,SCT,0.00,VWS V14.00,2013-01-10 08:00:00,
2013-01-10 03:04:00,35.1,26.6,30.37,WSW,246,7.9,10.9,71,0.00,,OVC,0.00,VWS V14.00,2013-01-10 08:04:00,
2013-01-10 03:09:00,34.9,26.4,30.37,SW,233,5.0,10.9,71,0.00,,OVC,0.00,VWS V14.00,2013-01-10 08:09:00,
2013-01-10 03:14:00,34.9,26.4,30.38,SW,219,4.9,10.9,71,0.00,,OVC,0.00,VWS V14.00,2013-01-10 08:14:00,
2013-01-10 03:19:00,34.7,26.3,30.38,WSW,253,5.2,10.9,71,0.00,,OVC,0.00,VWS V14.00,2013-01-10 08:19:00,
2013-01-10 03:24:00,34.7,26.3,30.39,WSW,246,5.6,11.6,71,0.00,,OVC,0.00,VWS V14.00,2013-01-10 08:24:00,
2013-01-10 03:29:00,34.5,26.1,30.39,SW,219,6.6,10.9,71,0.00,,OVC,0.00,VWS V14.00,2013-01-10 08:29:00,
2013-01-10 03:30:00,34.7,26.3,30.39,SW,235,3.5,11.6,71,0.00,,SCT,0.00,VWS V14.00,2013-01-10 08:30:00,
2013-01-10 03:34:00,34.4,26.3,30.40,SW,233,7.8,11.1,72,0.00,,OVC,0.00,VWS V14.00,2013-01-10 08:34:00,
2013-01-10 03:39:00,34.1,26.1,30.40,West,262,4.8,11.1,72,0.00,,OVC,0.00,VWS V14.00,2013-01-10 08:39:00,
2013-01-10 03:44:00,34.1,26.2,30.40,SW,215,6.0,11.1,72,0.00,,OVC,0.00,VWS V14.00,2013-01-10 08:44:00,
2013-01-10 03:49:00,34.1,26.2,30.40,WSW,239,6.5,11.1,72,0.00,,OVC,0.00,VWS V14.00,2013-01-10 08:49:00,
2013-01-10 03:54:00,34.1,26.1,30.39,SW,232,6.0,11.1,72,0.00,,OVC,0.00,VWS V14.00,2013-01-10 08:54:00,
2013-01-10 03:59:00,33.9,25.9,30.40,WSW,242,6.2,7.7,72,0.00,,OVC,0.00,VWS V14.00,2013-01-10 08:59:00,
2013-01-10 04:00:00,34.2,26.3,30.40,WSW,250,2.5,11.1,72,0.00,,SCT,0.00,VWS V14.00,2013-01-10 09:00:00,
2013-01-10 04:04:00,34.0,26.1,30.40,SW,222,3.6,9.6,72,0.00,,OVC,0.00,VWS V14.00,2013-01-10 09:04:00,
2013-01-10 04:09:00,33.8,26.0,30.40,SW,229,5.3,9.6,73,0.00,,OVC,0.00,VWS V14.00,2013-01-10 09:09:00,
2013-01-10 04:14:00,33.5,25.8,30.40,WSW,246,6.2,9.6,73,0.00,,OVC,0.00,VWS V14.00,2013-01-10 09:14:00,
2013-01-10 04:19:00,33.5,25.8,30.40,SW,217,7.7,9.6,73,0.00,,OVC,0.00,VWS V14.00,2013-01-10 09:19:00,
2013-01-10 04:24:00,33.6,25.8,30.40,SW,226,3.6,9.6,73,0.00,,OVC,0.00,VWS V14.00,2013-01-10 09:24:00,
2013-01-10 04:29:00,33.1,25.4,30.40,SW,217,4.3,6.0,73,0.00,,OVC,0.00,VWS V14.00,2013-01-10 09:29:00,
2013-01-10 04:30:00,33.4,25.7,30.40,SW,222,4.2,9.6,73,0.00,,SCT,0.00,VWS V14.00,2013-01-10 09:30:00,
2013-01-10 04:34:00,32.8,25.2,30.41,SW,231,5.2,6.8,73,0.00,,OVC,0.00,VWS V14.00,2013-01-10 09:34:00,
2013-01-10 04:39:00,32.6,25.1,30.41,South,186,2.8,8.1,74,0.00,,OVC,0.00,VWS V14.00,2013-01-10 09:39:00,
2013-01-10 04:44:00,32.7,25.2,30.41,WSW,239,3.5,8.1,74,0.00,,OVC,0.00,VWS V14.00,2013-01-10 09:44:00,
2013-01-10 04:49:00,32.8,25.2,30.41,SW,219,5.1,8.7,73,0.00,,OVC,0.00,VWS V14.00,2013-01-10 09:49:00,
2013-01-10 04:54:00,32.7,25.1,30.41,SW,226,4.8,8.7,73,0.00,,OVC,0.00,VWS V14.00,2013-01-10 09:54:00,
2013-01-10 04:59:00,32.5,24.9,30.41,SW,219,6.3,6.3,73,0.00,,OVC,0.00,VWS V14.00,2013-01-10 09:59:00,
2013-01-10 05:00:00,32.5,24.8,30.42,WSW,243,4.6,8.7,73,0.00,,SCT,0.00,VWS V14.00,2013-01-10 10:00:00,
2013-01-10 05:04:00,32.3,24.8,30.42,SW,219,5.7,6.8,74,0.00,,OVC,0.00,VWS V14.00,2013-01-10 10:04:00,
2013-01-10 05:09:00,32.2,24.8,30.42,SSW,204,4.8,7.3,74,0.00,,OVC,0.00,VWS V14.00,2013-01-10 10:09:00,
2013-01-10 05:14:00,32.2,24.7,30.43,SW,233,4.2,7.3,74,0.00,,OVC,0.00,VWS V14.00,2013-01-10 10:14:00,
2013-01-10 05:19:00,32.2,24.8,30.43,SW,218,3.3,7.3,74,0.00,,OVC,0.00,VWS V14.00,2013-01-10 10:19:00,
2013-01-10 05:24:00,32.0,24.7,30.43,SW,221,3.0,7.3,74,0.00,,OVC,0.00,VWS V14.00,2013-01-10 10:24:00,
2013-01-10 05:29:00,31.9,24.6,30.44,SSW,195,3.6,6.5,74,0.00,,OVC,0.00,VWS V14.00,2013-01-10 10:29:00,
2013-01-10 05:30:00,31.9,24.6,30.43,SW,222,6.3,7.3,74,0.00,,SCT,0.00,VWS V14.00,2013-01-10 10:30:00,
2013-01-10 05:34:00,31.8,24.5,30.44,SW,217,4.7,8.6,74,0.00,,OVC,0.00,VWS V14.00,2013-01-10 10:34:00,
2013-01-10 05:39:00,31.7,24.4,30.44,WSW,245,3.5,8.6,74,0.00,,OVC,0.00,VWS V14.00,2013-01-10 10:39:00,
2013-01-10 05:45:00,31.5,24.3,30.44,SW,219,5.3,8.6,74,0.00,,OVC,0.00,VWS V14.00,2013-01-10 10:45:00,
2013-01-10 05:50:00,31.5,24.4,30.44,SW,228,5.7,9.8,75,0.00,,OVC,0.00,VWS V14.00,2013-01-10 10:50:00,
2013-01-10 05:55:00,31.6,24.4,30.45,SW,229,5.3,9.8,74,0.00,,OVC,0.00,VWS V14.00,2013-01-10 10:55:00,
2013-01-10 06:00:00,31.5,24.3,30.45,South,183,1.7,9.4,74,0.00,,OVC,0.00,VWS V14.00,2013-01-10 11:00:00,
2013-01-10 06:05:00,31.5,24.4,30.46,SSW,212,6.2,9.4,75,0.00,,OVC,0.00,VWS V14.00,2013-01-10 11:05:00,
2013-01-10 06:10:00,31.5,24.1,30.47,SW,219,6.0,9.4,74,0.00,,OVC,0.00,VWS V14.00,2013-01-10 11:10:00,
2013-01-10 06:15:00,31.6,24.4,30.47,SW,217,6.6,9.4,74,0.00,,OVC,0.00,VWS V14.00,2013-01-10 11:15:00,
2013-01-10 06:20:00,31.5,24.4,30.47,SW,226,4.5,9.4,75,0.00,,OVC,0.00,VWS V14.00,2013-01-10 11:20:00,
2013-01-10 06:25:00,31.3,24.2,30.48,SW,231,3.3,9.4,75,0.00,,OVC,0.00,VWS V14.00,2013-01-10 11:25:00,
2013-01-10 06:30:00,31.2,24.3,30.48,WSW,240,4.3,6.9,75,0.00,,OVC,0.00,VWS V14.00,2013-01-10 11:30:00,
2013-01-10 06:35:00,31.0,24.2,30.48,SW,221,4.3,8.1,76,0.00,,OVC,0.00,VWS V14.00,2013-01-10 11:35:00,
2013-01-10 06:40:00,31.0,24.4,30.49,WSW,242,5.7,8.6,76,0.00,,OVC,0.00,VWS V14.00,2013-01-10 11:40:00,
2013-01-10 06:45:00,31.0,24.5,30.49,SW,222,3.0,8.6,76,0.00,,OVC,0.00,VWS V14.00,2013-01-10 11:45:00,
2013-01-10 06:50:00,30.7,24.3,30.50,SW,224,5.0,8.6,77,0.00,,OVC,0.00,VWS V14.00,2013-01-10 11:50:00,
2013-01-10 06:55:00,30.6,24.3,30.50,SW,221,8.4,8.6,77,0.00,,OVC,0.00,VWS V14.00,2013-01-10 11:55:00,
2013-01-10 07:00:00,30.8,24.6,30.49,SW,231,3.9,8.6,78,0.00,,OVC,0.00,VWS V14.00,2013-01-10 12:00:00,
2013-01-10 07:05:00,30.8,24.5,30.49,SW,218,6.6,11.5,77,0.00,,OVC,0.00,VWS V14.00,2013-01-10 12:05:00,
2013-01-10 07:10:00,31.1,24.6,30.50,SW,218,5.2,11.5,77,0.00,,OVC,0.00,VWS V14.00,2013-01-10 12:10:00,
2013-01-10 07:15:00,31.2,24.7,30.50,West,271,3.9,11.5,77,0.00,,OVC,0.00,VWS V14.00,2013-01-10 12:15:00,
2013-01-10 07:20:00,31.3,25.0,30.50,West,259,4.7,11.5,77,0.00,,SCT,0.00,VWS V14.00,2013-01-10 12:20:00,
2013-01-10 07:25:00,31.2,24.9,30.51,WSW,253,2.6,11.5,77,0.00,,SCT,0.00,VWS V14.00,2013-01-10 12:25:00,
2013-01-10 07:30:00,31.2,25.0,30.51,WSW,249,4.7,10.3,77,0.00,,SCT,0.00,VWS V14.00,2013-01-10 12:30:00,
2013-01-10 07:35:00,31.0,25.0,30.51,SW,236,4.3,10.3,78,0.00,,SCT,0.00,VWS V14.00,2013-01-10 12:35:00,
2013-01-10 07:40:00,30.9,25.1,30.52,SW,232,5.4,10.3,79,0.00,,SCT,0.00,VWS V14.00,2013-01-10 12:40:00,
2013-01-10 07:45:00,30.6,24.9,30.52,SW,229,6.5,10.3,79,0.00,,SCT,0.00,VWS V14.00,2013-01-10 12:45:00,
2013-01-10 07:50:00,30.6,25.0,30.52,WSW,239,3.8,10.3,79,0.00,,SKC,0.00,VWS V14.00,2013-01-10 12:50:00,
2013-01-10 07:55:00,30.6,24.9,30.53,SW,218,7.1,10.3,79,0.00,,SKC,0.00,VWS V14.00,2013-01-10 12:55:00,
2013-01-10 08:00:00,30.7,25.1,30.53,WSW,256,3.0,7.9,79,0.00,,SKC,0.00,VWS V14.00,2013-01-10 13:00:00,
2013-01-10 08:05:00,30.8,25.1,30.53,SW,232,5.0,8.3,79,0.00,,SKC,0.00,VWS V14.00,2013-01-10 13:05:00,
2013-01-10 08:10:00,30.9,25.2,30.54,SW,219,3.4,8.3,79,0.00,,SKC,0.00,VWS V14.00,2013-01-10 13:10:00,
2013-01-10 08:15:00,30.9,25.2,30.54,WSW,240,5.4,10.4,79,0.00,,SKC,0.00,VWS V14.00,2013-01-10 13:15:00,
2013-01-10 08:20:00,30.9,25.1,30.54,West,266,5.0,10.4,79,0.00,,SKC,0.00,VWS V14.00,2013-01-10 13:20:00,
2013-01-10 08:25:00,31.0,25.2,30.54,WSW,240,2.8,10.4,79,0.00,,SKC,0.00,VWS V14.00,2013-01-10 13:25:00,
2013-01-10 08:30:00,31.2,25.2,30.55,WSW,245,5.2,8.6,78,0.00,,SKC,0.00,VWS V14.00,2013-01-10 13:30:00,
2013-01-10 08:35:00,31.3,25.2,30.55,WSW,256,2.4,8.6,78,0.00,,SKC,0.00,VWS V14.00,2013-01-10 13:35:00,
2013-01-10 08:40:00,31.4,25.2,30.55,SW,219,3.3,8.6,78,0.00,,SKC,0.00,VWS V14.00,2013-01-10 13:40:00,
2013-01-10 08:45:00,31.5,25.1,30.55,SW,235,5.5,8.6,77,0.00,,SKC,0.00,VWS V14.00,2013-01-10 13:45:00,
2013-01-10 08:50:00,31.5,24.9,30.56,SW,226,3.5,8.7,76,0.00,,SKC,0.00,VWS V14.00,2013-01-10 13:50:00,
2013-01-10 08:55:00,31.8,25.1,30.57,WSW,243,2.9,8.7,76,0.00,,SKC,0.00,VWS V14.00,2013-01-10 13:55:00,
2013-01-10 09:00:00,32.1,25.3,30.58,WSW,252,3.9,6.8,76,0.00,,SKC,0.00,VWS V14.00,2013-01-10 14:00:00,
2013-01-10 09:05:00,32.0,24.9,30.58,WSW,255,4.3,8.6,75,0.00,,SKC,0.00,VWS V14.00,2013-01-10 14:05:00,
2013-01-10 09:10:00,32.2,25.0,30.58,SW,225,9.4,9.4,74,0.00,,SKC,0.00,VWS V14.00,2013-01-10 14:10:00,
2013-01-10 09:15:00,32.4,24.9,30.58,WSW,257,5.0,12.8,74,0.00,,SKC,0.00,VWS V14.00,2013-01-10 14:15:00,
2013-01-10 09:20:00,32.7,25.0,30.58,WSW,248,5.0,12.8,73,0.00,,SKC,0.00,VWS V14.00,2013-01-10 14:20:00,
2013-01-10 09:25:00,32.9,25.0,30.58,SW,231,2.9,12.8,72,0.00,,SKC,0.00,VWS V14.00,2013-01-10 14:25:00,
2013-01-10 09:30:00,33.1,25.2,30.58,WNW,284,3.3,6.3,72,0.00,,SKC,0.00,VWS V14.00,2013-01-10 14:30:00,
2013-01-10 09:35:00,33.3,25.3,30.58,WSW,256,3.4,9.6,72,0.00,,SKC,0.00,VWS V14.00,2013-01-10 14:35:00,
2013-01-10 09:40:00,33.6,25.4,30.58,West,271,5.1,10.1,71,0.00,,SKC,0.00,VWS V14.00,2013-01-10 14:40:00,
2013-01-10 09:45:00,33.5,25.2,30.58,WNW,291,6.2,11.5,71,0.00,,SKC,0.00,VWS V14.00,2013-01-10 14:45:00,
2013-01-10 09:50:00,33.8,25.4,30.58,SSW,208,5.7,11.5,71,0.00,,SKC,0.00,VWS V14.00,2013-01-10 14:50:00,
2013-01-10 09:55:00,33.9,25.4,30.59,WNW,295,4.9,11.5,71,0.00,,SKC,0.00,VWS V14.00,2013-01-10 14:55:00,
2013-01-10 10:00:00,34.1,25.4,30.59,West,263,5.6,9.6,70,0.00,,SKC,0.00,VWS V14.00,2013-01-10 15:00:00,
2013-01-10 10:05:00,34.1,25.2,30.59,WSW,256,7.4,10.7,70,0.00,,SKC,0.00,VWS V14.00,2013-01-10 15:05:00,
2013-01-10 10:10:00,34.3,25.4,30.59,WSW,240,5.0,10.7,70,0.00,,SKC,0.00,VWS V14.00,2013-01-10 15:10:00,
2013-01-10 10:15:00,34.7,25.7,30.60,West,260,4.0,10.7,69,0.00,,SKC,0.00,VWS V14.00,2013-01-10 15:15:00,
2013-01-10 10:20:00,34.8,25.6,30.59,WNW,283,5.0,10.7,69,0.00,,SKC,0.00,VWS V14.00,2013-01-10 15:20:00,
2013-01-10 10:25:00,35.0,25.6,30.60,West,269,4.3,12.9,68,0.00,,SKC,0.00,VWS V14.00,2013-01-10 15:25:00,
2013-01-10 10:30:00,35.0,25.3,30.59,West,270,6.8,11.4,68,0.00,,SKC,0.00,VWS V14.00,2013-01-10 15:30:00,
2013-01-10 10:35:00,35.2,25.5,30.60,WSW,253,4.2,13.4,68,0.00,,SKC,0.00,VWS V14.00,2013-01-10 15:35:00,
2013-01-10 10:40:00,35.3,25.6,30.60,West,278,6.2,13.4,67,0.00,,SKC,0.00,VWS V14.00,2013-01-10 15:40:00,
2013-01-10 10:45:00,35.2,25.3,30.60,West,271,7.7,13.4,67,0.00,,SKC,0.00,VWS V14.00,2013-01-10 15:45:00,
2013-01-10 10:50:00,35.5,25.5,30.59,West,274,8.5,13.4,67,0.00,,SKC,0.00,VWS V14.00,2013-01-10 15:50:00,
2013-01-10 10:55:00,35.6,25.4,30.59,WNW,283,5.7,13.4,66,0.00,,SKC,0.00,VWS V14.00,2013-01-10 15:55:00,
2013-01-10 11:00:00,35.7,25.3,30.59,WNW,284,7.1,11.7,66,0.00,,SKC,0.00,VWS V14.00,2013-01-10 16:00:00,
2013-01-10 11:05:00,35.7,25.4,30.59,West,271,5.8,14.2,66,0.00,,SKC,0.00,VWS V14.00,2013-01-10 16:05:00,
2013-01-10 11:10:00,35.9,25.3,30.58,WNW,294,9.8,14.2,65,0.00,,SKC,0.00,VWS V14.00,2013-01-10 16:10:00,
2013-01-10 11:15:00,35.6,25.2,30.59,West,263,7.7,14.2,66,0.00,,SKC,0.00,VWS V14.00,2013-01-10 16:15:00,
2013-01-10 11:20:00,36.0,25.2,30.59,West,270,4.8,14.2,64,0.00,,SKC,0.00,VWS V14.00,2013-01-10 16:20:00,
2013-01-10 11:25:00,36.1,25.1,30.59,NW,309,5.3,14.2,64,0.00,,SKC,0.00,VWS V14.00,2013-01-10 16:25:00,
2013-01-10 11:30:00,36.2,25.4,30.58,WNW,294,10.1,12.9,65,0.00,,SKC,0.00,VWS V14.00,2013-01-10 16:30:00,
2013-01-10 11:35:00,36.1,25.3,30.58,West,280,6.9,12.9,64,0.00,,SKC,0.00,VWS V14.00,2013-01-10 16:35:00,
2013-01-10 11:40:00,36.4,25.4,30.58,WNW,300,7.2,12.9,64,0.00,,SKC,0.00,VWS V14.00,2013-01-10 16:40:00,
2013-01-10 11:45:00,36.6,25.5,30.58,WNW,294,6.1,12.9,64,0.00,,SKC,0.00,VWS V14.00,2013-01-10 16:45:00,
2013-01-10 11:50:00,36.7,25.6,30.58,West,281,7.8,12.9,64,0.00,,SKC,0.00,VWS V14.00,2013-01-10 16:50:00,
2013-01-10 11:55:00,36.8,25.5,30.58,WNW,291,6.6,12.9,63,0.00,,SKC,0.00,VWS V14.00,2013-01-10 16:55:00,
2013-01-10 12:00:00,37.0,25.7,30.58,NW,308,8.1,9.4,63,0.00,,SKC,0.00,VWS V14.00,2013-01-10 17:00:00,
2013-01-10 12:05:00,36.9,25.3,30.57,WNW,284,7.6,13.3,62,0.00,,SKC,0.00,VWS V14.00,2013-01-10 17:05:00,
2013-01-10 12:10:00,36.9,25.5,30.57,WNW,288,9.1,13.3,63,0.00,,SKC,0.00,VWS V14.00,2013-01-10 17:10:00,
2013-01-10 12:15:00,37.2,25.5,30.57,West,281,9.3,13.3,62,0.00,,SKC,0.00,VWS V14.00,2013-01-10 17:15:00,
2013-01-10 12:21:00,37.0,25.5,30.58,NW,314,8.7,13.3,63,0.00,,SKC,0.00,VWS V14.00,2013-01-10 17:21:00,
2013-01-10 12:26:00,36.9,25.6,30.57,WNW,291,7.2,13.3,63,0.00,,SKC,0.00,VWS V14.00,2013-01-10 17:26:00,
2013-01-10 12:30:00,37.1,26.0,30.58,WNW,297,6.3,15.2,64,0.00,,SCT,0.00,VWS V14.00,2013-01-10 17:30:00,
2013-01-10 12:31:00,37.0,25.4,30.58,NW,309,7.9,12.7,63,0.00,,SKC,0.00,VWS V14.00,2013-01-10 17:31:00,
2013-01-10 12:36:00,37.1,25.3,30.58,WSW,249,6.5,12.7,62,0.00,,SKC,0.00,VWS V14.00,2013-01-10 17:36:00,
2013-01-10 12:41:00,37.3,25.6,30.57,WNW,292,3.4,12.7,62,0.00,,SKC,0.00,VWS V14.00,2013-01-10 17:41:00,
2013-01-10 12:46:00,37.6,26.0,30.58,West,267,4.7,12.7,63,0.00,,SKC,0.00,VWS V14.00,2013-01-10 17:46:00,
2013-01-10 12:51:00,37.7,26.0,30.58,WSW,256,6.8,12.7,62,0.00,,SKC,0.00,VWS V14.00,2013-01-10 17:51:00,
2013-01-10 12:56:00,37.2,25.2,30.58,WNW,285,8.0,12.7,61,0.00,,SKC,0.00,VWS V14.00,2013-01-10 17:56:00,
2013-01-10 13:00:00,37.2,25.5,30.58,NW,305,5.5,12.7,62,0.00,,SCT,0.00,VWS V14.00,2013-01-10 18:00:00,
2013-01-10 13:01:00,37.2,25.2,30.58,NW,304,6.6,8.0,62,0.00,,SKC,0.00,VWS V14.00,2013-01-10 18:01:00,
2013-01-10 13:06:00,37.5,25.7,30.58,NW,304,5.5,8.6,62,0.00,,SKC,0.00,VWS V14.00,2013-01-10 18:06:00,
2013-01-10 13:11:00,37.8,25.9,30.58,WNW,292,4.1,9.0,62,0.00,,SKC,0.00,VWS V14.00,2013-01-10 18:11:00,
2013-01-10 13:16:00,37.4,25.6,30.58,WNW,302,6.5,9.0,62,0.00,,SKC,0.00,VWS V14.00,2013-01-10 18:16:00,
2013-01-10 13:21:00,37.7,25.8,30.58,West,267,2.5,9.0,62,0.00,,SKC,0.00,VWS V14.00,2013-01-10 18:21:00,
2013-01-10 13:26:00,37.7,25.6,30.58,WNW,294,1.9,9.0,61,0.00,,SKC,0.00,VWS V14.00,2013-01-10 18:26:00,
2013-01-10 13:30:00,38.0,25.7,30.58,West,271,5.5,9.0,61,0.00,,SCT,0.00,VWS V14.00,2013-01-10 18:30:00,
2013-01-10 13:31:00,38.0,26.1,30.58,WNW,294,1.1,7.1,62,0.00,,SKC,0.00,VWS V14.00,2013-01-10 18:31:00,
2013-01-10 13:36:00,38.1,25.8,30.58,WNW,285,1.7,9.2,61,0.00,,SKC,0.00,VWS V14.00,2013-01-10 18:36:00,
2013-01-10 13:41:00,38.2,25.9,30.59,West,266,4.0,9.2,61,0.00,,SKC,0.00,VWS V14.00,2013-01-10 18:41:00,
2013-01-10 13:46:00,38.2,25.8,30.59,WSW,246,5.0,9.2,60,0.00,,SKC,0.00,VWS V14.00,2013-01-10 18:46:00,
2013-01-10 13:51:00,38.2,25.6,30.59,West,264,7.9,9.2,60,0.00,,SKC,0.00,VWS V14.00,2013-01-10 18:51:00,
2013-01-10 13:56:00,38.4,25.9,30.59,WSW,242,2.8,9.2,60,0.00,,SKC,0.00,VWS V14.00,2013-01-10 18:56:00,
2013-01-10 14:00:00,38.5,25.8,30.59,West,267,3.4,9.2,60,0.00,,SCT,0.00,VWS V14.00,2013-01-10 19:00:00,
2013-01-10 14:01:00,38.6,26.1,30.59,WSW,255,4.8,7.7,60,0.00,,SKC,0.00,VWS V14.00,2013-01-10 19:01:00,
2013-01-10 14:06:00,38.5,25.6,30.59,West,278,2.1,7.7,59,0.00,,SKC,0.00,VWS V14.00,2013-01-10 19:06:00,
2013-01-10 14:11:00,38.5,25.8,30.59,WSW,243,3.7,7.7,60,0.00,,SKC,0.00,VWS V14.00,2013-01-10 19:11:00,
2013-01-10 14:16:00,38.5,25.6,30.60,WNW,284,5.0,7.7,59,0.00,,SKC,0.00,VWS V14.00,2013-01-10 19:16:00,
2013-01-10 14:21:00,38.6,25.5,30.60,WSW,248,2.0,7.7,59,0.00,,SKC,0.00,VWS V14.00,2013-01-10 19:21:00,
2013-01-10 14:26:00,38.6,25.7,30.60,NW,307,3.5,7.7,59,0.00,,SKC,0.00,VWS V14.00,2013-01-10 19:26:00,
2013-01-10 14:30:00,38.6,25.8,30.60,NW,305,4.0,7.7,60,0.00,,SCT,0.00,VWS V14.00,2013-01-10 19:30:00,
2013-01-10 14:31:00,38.6,25.7,30.60,WNW,284,5.0,7.0,59,0.00,,SKC,0.00,VWS V14.00,2013-01-10 19:31:00,
2013-01-10 14:36:00,38.5,25.6,30.60,West,266,4.5,8.0,60,0.00,,SKC,0.00,VWS V14.00,2013-01-10 19:36:00,
2013-01-10 14:41:00,38.7,26.2,30.60,WSW,243,1.6,8.0,60,0.00,,SKC,0.00,VWS V14.00,2013-01-10 19:41:00,
2013-01-10 14:46:00,38.8,25.9,30.61,SW,231,2.5,8.0,59,0.00,,SKC,0.00,VWS V14.00,2013-01-10 19:46:00,
2013-01-10 14:51:00,38.5,25.7,30.61,SW,217,4.3,8.1,60,0.00,,SKC,0.00,VWS V14.00,2013-01-10 19:51:00,
2013-01-10 14:56:00,38.4,25.6,30.61,WSW,248,0.6,8.1,60,0.00,,SKC,0.00,VWS V14.00,2013-01-10 19:56:00,
2013-01-10 15:00:00,38.5,25.8,30.61,WSW,248,0.0,8.1,60,0.00,,SCT,0.00,VWS V14.00,2013-01-10 20:00:00,
2013-01-10 15:01:00,38.7,25.8,30.60,NW,305,4.8,8.1,59,0.00,,SKC,0.00,VWS V14.00,2013-01-10 20:01:00,
2013-01-10 15:06:00,38.9,26.0,30.61,SSW,208,3.7,8.1,60,0.00,,SKC,0.00,VWS V14.00,2013-01-10 20:06:00,
2013-01-10 15:11:00,38.7,25.6,30.61,SW,229,4.2,8.1,59,0.00,,SKC,0.00,VWS V14.00,2013-01-10 20:11:00,
2013-01-10 15:16:00,38.6,25.8,30.61,SW,217,5.0,8.1,60,0.00,,SKC,0.00,VWS V14.00,2013-01-10 20:16:00,
2013-01-10 15:21:00,38.6,25.9,30.61,West,264,0.7,8.1,60,0.00,,SKC,0.00,VWS V14.00,2013-01-10 20:21:00,
2013-01-10 15:26:00,38.8,25.9,30.62,WSW,250,1.6,8.1,59,0.00,,SKC,0.00,VWS V14.00,2013-01-10 20:26:00,
2013-01-10 15:30:00,38.6,25.8,30.62,WSW,240,0.0,8.1,60,0.00,,SCT,0.00,VWS V14.00,2013-01-10 20:30:00,
2013-01-10 15:31:00,38.6,25.7,30.62,WSW,257,0.0,5.4,59,0.00,,SKC,0.00,VWS V14.00,2013-01-10 20:31:00,
2013-01-10 15:36:00,38.3,25.8,30.62,West,270,3.7,6.1,60,0.00,,SKC,0.00,VWS V14.00,2013-01-10 20:36:00,
2013-01-10 15:41:00,38.4,25.9,30.63,WSW,242,0.0,6.1,60,0.00,,SKC,0.00,VWS V14.00,2013-01-10 20:41:00,
2013-01-10 15:46:00,38.2,25.8,30.63,WSW,242,0.0,6.1,61,0.00,,SKC,0.00,VWS V14.00,2013-01-10 20:46:00,
2013-01-10 15:51:00,38.2,25.6,30.63,WSW,242,0.0,6.1,60,0.00,,SKC,0.00,VWS V14.00,2013-01-10 20:51:00,
2013-01-10 15:56:00,38.4,25.9,30.63,WSW,242,0.0,6.1,60,0.00,,SKC,0.00,VWS V14.00,2013-01-10 20:56:00,
2013-01-10 16:00:00,38.3,25.8,30.63,WSW,242,0.0,6.1,60,0.00,,SCT,0.00,VWS V14.00,2013-01-10 21:00:00,
2013-01-10 16:01:00,38.4,25.9,30.63,WSW,242,0.0,0.0,60,0.00,,SKC,0.00,VWS V14.00,2013-01-10 21:01:00,
2013-01-10 16:06:00,38.3,26.0,30.64,WSW,242,0.0,0.0,61,0.00,,SKC,0.00,VWS V14.00,2013-01-10 21:06:00,
2013-01-10 16:11:00,38.1,25.9,30.63,WSW,242,0.0,0.0,61,0.00,,SKC,0.00,VWS V14.00,2013-01-10 21:11:00,
2013-01-10 16:16:00,37.1,25.6,30.63,NNE,18,4.3,6.7,63,0.00,,SKC,0.00,VWS V14.00,2013-01-10 21:16:00,
2013-01-10 16:21:00,36.7,25.6,30.63,NNE,32,3.6,6.7,64,0.00,,SKC,0.00,VWS V14.00,2013-01-10 21:21:00,
2013-01-10 16:26:00,36.1,25.5,30.63,NNE,30,4.0,6.7,65,0.00,,SKC,0.00,VWS V14.00,2013-01-10 21:26:00,
2013-01-10 16:30:00,35.9,25.3,30.63,NNE,27,3.3,6.7,65,0.00,,SCT,0.00,VWS V14.00,2013-01-10 21:30:00,
2013-01-10 16:31:00,35.7,25.3,30.63,North,11,0.0,3.5,66,0.00,,SKC,0.00,VWS V14.00,2013-01-10 21:31:00,
2013-01-10 16:36:00,35.3,25.6,30.63,North,11,0.0,3.5,67,0.00,,SKC,0.00,VWS V14.00,2013-01-10 21:36:00,
2013-01-10 16:41:00,34.9,25.5,30.63,North,11,0.0,3.5,68,0.00,,SKC,0.00,VWS V14.00,2013-01-10 21:41:00,
2013-01-10 16:46:00,34.6,25.4,30.63,North,11,0.0,3.5,69,0.00,,SKC,0.00,VWS V14.00,2013-01-10 21:46:00,
2013-01-10 16:51:00,34.3,25.3,30.63,North,11,0.0,3.5,69,0.00,,SKC,0.00,VWS V14.00,2013-01-10 21:51:00,
2013-01-10 16:56:00,33.9,25.4,30.63,North,11,0.0,3.5,71,0.00,,SKC,0.00,VWS V14.00,2013-01-10 21:56:00,
2013-01-10 17:00:00,33.8,25.3,30.63,North,11,0.0,3.5,71,0.00,,SCT,0.00,VWS V14.00,2013-01-10 22:00:00,
2013-01-10 17:01:00,33.4,25.0,30.62,North,11,0.0,0.0,71,0.00,,SKC,0.00,VWS V14.00,2013-01-10 22:01:00,
2013-01-10 17:06:00,33.2,24.9,30.63,North,11,0.0,0.0,71,0.00,,SKC,0.00,VWS V14.00,2013-01-10 22:06:00,
2013-01-10 17:11:00,32.9,24.9,30.62,North,11,0.0,0.0,72,0.00,,SKC,0.00,VWS V14.00,2013-01-10 22:11:00,
2013-01-10 17:16:00,32.7,24.7,30.62,North,11,0.0,0.0,72,0.00,,SKC,0.00,VWS V14.00,2013-01-10 22:16:00,
2013-01-10 17:21:00,32.4,24.3,30.62,North,11,0.0,0.0,72,0.00,,SKC,0.00,VWS V14.00,2013-01-10 22:21:00,
2013-01-10 17:26:00,32.2,24.2,30.62,North,11,0.0,0.0,72,0.00,,SKC,0.00,VWS V14.00,2013-01-10 22:26:00,
2013-01-10 17:30:00,32.1,24.1,30.61,North,11,0.0,0.0,72,0.00,,SCT,0.00,VWS V14.00,2013-01-10 22:30:00,
2013-01-10 17:31:00,32.1,24.1,30.62,North,11,0.0,0.0,72,0.00,,SKC,0.00,VWS V14.00,2013-01-10 22:31:00,
2013-01-10 17:36:00,31.6,23.9,30.62,North,11,0.0,0.0,73,0.00,,SKC,0.00,VWS V14.00,2013-01-10 22:36:00,
2013-01-10 17:41:00,31.3,23.9,30.62,North,11,0.0,0.0,74,0.00,,SKC,0.00,VWS V14.00,2013-01-10 22:41:00,
2013-01-10 17:46:00,30.7,23.7,30.62,North,11,0.0,0.0,75,0.00,,SKC,0.00,VWS V14.00,2013-01-10 22:46:00,
2013-01-10 17:51:00,30.3,23.6,30.62,North,11,0.0,0.0,76,0.00,,SKC,0.00,VWS V14.00,2013-01-10 22:51:00,
2013-01-10 17:57:00,30.0,23.5,30.62,North,11,0.0,0.0,76,0.01,,SKC,0.01,VWS V14.00,2013-01-10 22:57:00,
2013-01-10 18:00:00,30.0,23.5,30.62,North,11,0.0,0.0,76,0.01,,SCT,0.01,VWS V14.00,2013-01-10 23:00:00,
2013-01-10 18:07:00,29.5,23.4,30.62,North,11,0.0,0.0,78,0.01,,SKC,0.01,VWS V14.00,2013-01-10 23:07:00,
2013-01-10 18:17:00,29.3,23.4,30.62,North,11,0.0,0.0,78,0.01,,SKC,0.01,VWS V14.00,2013-01-10 23:17:00,
2013-01-10 18:22:00,29.1,23.4,30.62,North,11,0.0,0.0,79,0.01,,SKC,0.01,VWS V14.00,2013-01-10 23:22:00,
2013-01-10 18:27:00,28.9,23.2,30.62,North,11,0.0,0.0,79,0.01,,SKC,0.01,VWS V14.00,2013-01-10 23:27:00,
2013-01-10 18:30:00,28.9,23.2,30.62,North,11,0.0,0.0,79,0.01,,SCT,0.01,VWS V14.00,2013-01-10 23:30:00,
2013-01-10 18:32:00,28.8,23.3,30.62,North,11,0.0,0.0,80,0.01,,SKC,0.01,VWS V14.00,2013-01-10 23:32:00,
2013-01-10 18:37:00,28.6,23.2,30.62,North,11,0.0,0.0,80,0.01,,SKC,0.01,VWS V14.00,2013-01-10 23:37:00,
2013-01-10 18:42:00,28.4,23.1,30.62,North,11,0.0,0.0,80,0.00,,SKC,0.01,VWS V14.00,2013-01-10 23:42:00,
2013-01-10 18:47:00,28.2,23.0,30.63,North,11,0.0,0.0,80,0.00,,SKC,0.01,VWS V14.00,2013-01-10 23:47:00,
2013-01-10 18:52:00,27.9,22.8,30.63,North,11,0.0,0.0,81,0.00,,SKC,0.01,VWS V14.00,2013-01-10 23:52:00,
2013-01-10 18:57:00,27.7,22.7,30.63,North,11,0.0,0.0,81,0.00,,SKC,0.01,VWS V14.00,2013-01-10 23:57:00,
2013-01-10 19:00:00,27.7,22.7,30.63,North,11,0.0,0.0,81,0.00,,SCT,0.01,VWS V14.00,2013-01-11 00:00:00,
2013-01-10 19:02:00,27.3,22.4,30.63,North,11,0.0,0.0,82,0.00,,SKC,0.01,VWS V14.00,2013-01-11 00:02:00,
2013-01-10 19:07:00,27.2,22.4,30.63,North,11,0.0,0.0,82,0.00,,SKC,0.01,VWS V14.00,2013-01-11 00:07:00,
2013-01-10 19:12:00,27.0,22.3,30.63,North,11,0.0,0.0,82,0.00,,SKC,0.01,VWS V14.00,2013-01-11 00:12:00,
2013-01-10 19:17:00,26.6,22.1,30.63,North,11,0.0,0.0,83,0.00,,SKC,0.01,VWS V14.00,2013-01-11 00:17:00,
2013-01-10 19:22:00,26.5,22.1,30.63,North,11,0.0,0.0,83,0.00,,SKC,0.01,VWS V14.00,2013-01-11 00:22:00,
2013-01-10 19:27:00,26.5,22.2,30.63,North,11,0.0,0.0,84,0.00,,SKC,0.01,VWS V14.00,2013-01-11 00:27:00,
2013-01-10 19:30:00,26.5,22.2,30.63,North,11,0.0,0.0,84,0.00,,SCT,0.01,VWS V14.00,2013-01-11 00:30:00,
2013-01-10 19:32:00,26.4,22.3,30.63,North,11,0.0,0.0,84,0.00,,SKC,0.01,VWS V14.00,2013-01-11 00:32:00,
2013-01-10 19:37:00,26.4,22.3,30.63,North,11,0.0,0.0,84,0.00,,SKC,0.01,VWS V14.00,2013-01-11 00:37:00,
2013-01-10 19:42:00,26.4,22.3,30.63,North,11,0.0,0.0,84,0.00,,SKC,0.01,VWS V14.00,2013-01-11 00:42:00,
2013-01-10 19:47:00,26.2,22.3,30.63,North,11,0.0,0.0,85,0.00,,SKC,0.01,VWS V14.00,2013-01-11 00:47:00,
2013-01-10 19:52:00,26.0,22.1,30.63,North,11,0.0,0.0,85,0.00,,SKC,0.01,VWS V14.00,2013-01-11 00:52:00,
2013-01-10 19:57:00,26.1,22.4,30.63,North,11,0.0,0.0,86,0.00,,SKC,0.01,VWS V14.00,2013-01-11 00:57:00,
2013-01-10 20:00:00,26.2,22.5,30.63,North,11,0.0,0.0,86,0.00,,SCT,0.01,VWS V14.00,2013-01-11 01:00:00,
2013-01-10 20:02:00,25.9,22.2,30.63,North,11,0.0,0.0,86,0.00,,SKC,0.01,VWS V14.00,2013-01-11 01:02:00,
2013-01-10 20:07:00,26.0,22.4,30.63,North,11,0.0,0.0,86,0.00,,SKC,0.01,VWS V14.00,2013-01-11 01:07:00,
2013-01-10 20:12:00,25.8,22.2,30.63,North,11,0.0,0.0,86,0.00,,SKC,0.01,VWS V14.00,2013-01-11 01:12:00,
2013-01-10 20:17:00,25.5,21.9,30.62,North,11,0.0,0.0,86,0.00,,SKC,0.01,VWS V14.00,2013-01-11 01:17:00,
2013-01-10 20:22:00,25.2,21.7,30.62,North,11,0.0,0.0,86,0.00,,SKC,0.01,VWS V14.00,2013-01-11 01:22:00,
2013-01-10 20:27:00,24.9,21.9,30.62,North,11,0.0,0.0,88,0.00,,SKC,0.01,VWS V14.00,2013-01-11 01:27:00,
2013-01-10 20:30:00,25.1,22.0,30.62,North,11,0.0,0.0,88,0.00,,SCT,0.01,VWS V14.00,2013-01-11 01:30:00,
2013-01-10 20:32:00,24.8,22.1,30.62,North,11,0.0,0.0,89,0.00,,SKC,0.01,VWS V14.00,2013-01-11 01:32:00,
2013-01-10 20:37:00,24.7,22.0,30.62,North,11,0.0,0.0,89,0.00,,SKC,0.01,VWS V14.00,2013-01-11 01:37:00,
2013-01-10 20:48:00,24.3,21.7,30.62,North,11,0.0,0.0,90,0.00,,SKC,0.01,VWS V14.00,2013-01-11 01:48:00,
2013-01-10 20:53:00,24.3,21.7,30.61,North,11,0.0,0.0,90,0.00,,SKC,0.01,VWS V14.00,2013-01-11 01:53:00,
2013-01-10 21:00:00,24.3,21.7,30.61,North,11,0.0,0.0,90,0.00,,SCT,0.01,VWS V14.00,2013-01-11 02:00:00,
2013-01-10 21:03:00,24.3,21.7,30.61,North,11,0.0,0.0,90,0.00,,SKC,0.01,VWS V14.00,2013-01-11 02:03:00,
2013-01-10 21:08:00,24.2,21.5,30.61,North,11,0.0,0.0,89,0.00,,SKC,0.01,VWS V14.00,2013-01-11 02:08:00,
2013-01-10 21:13:00,24.2,21.5,30.61,North,11,0.0,0.0,89,0.00,,SKC,0.01,VWS V14.00,2013-01-11 02:13:00,
2013-01-10 21:18:00,23.8,20.9,30.61,North,11,0.0,0.0,88,0.00,,SKC,0.01,VWS V14.00,2013-01-11 02:18:00,
2013-01-10 21:23:00,23.6,20.7,30.61,North,11,0.0,0.0,88,0.00,,SKC,0.01,VWS V14.00,2013-01-11 02:23:00,
2013-01-10 21:28:00,23.2,20.4,30.61,North,11,0.0,0.0,89,0.00,,SKC,0.01,VWS V14.00,2013-01-11 02:28:00,
2013-01-10 21:30:00,23.3,20.4,30.61,North,11,0.0,0.0,89,0.00,,SCT,0.01,VWS V14.00,2013-01-11 02:30:00,
2013-01-10 21:33:00,23.3,20.7,30.60,North,11,0.0,0.0,90,0.00,,SKC,0.01,VWS V14.00,2013-01-11 02:33:00,
2013-01-10 21:43:00,23.2,20.8,30.60,North,11,0.0,0.0,90,0.00,,SKC,0.01,VWS V14.00,2013-01-11 02:43:00,
2013-01-10 21:48:00,23.1,21.0,30.60,North,11,0.0,0.0,91,0.00,,SKC,0.01,VWS V14.00,2013-01-11 02:48:00,
2013-01-10 21:53:00,23.0,21.0,30.60,North,11,0.0,0.0,92,0.00,,SKC,0.01,VWS V14.00,2013-01-11 02:53:00,
2013-01-10 21:58:00,23.4,21.6,30.60,North,11,0.0,0.0,93,0.00,,SKC,0.01,VWS V14.00,2013-01-11 02:58:00,
2013-01-10 22:00:00,23.2,21.4,30.60,North,11,0.0,0.0,93,0.00,,SCT,0.01,VWS V14.00,2013-01-11 03:00:00,
2013-01-10 22:03:00,23.8,21.9,30.60,North,11,0.0,0.0,92,0.00,,SKC,0.01,VWS V14.00,2013-01-11 03:03:00,
2013-01-10 22:08:00,24.2,22.3,30.60,North,11,0.0,0.0,92,0.00,,SKC,0.01,VWS V14.00,2013-01-11 03:08:00,
2013-01-10 22:13:00,24.3,22.1,30.60,North,11,0.0,0.0,91,0.00,,SKC,0.01,VWS V14.00,2013-01-11 03:13:00,
2013-01-10 22:18:00,24.1,21.8,30.60,North,11,0.0,0.0,91,0.00,,SKC,0.01,VWS V14.00,2013-01-11 03:18:00,
2013-01-10 22:23:00,24.0,21.6,30.60,North,11,0.0,0.0,90,0.00,,SKC,0.01,VWS V14.00,2013-01-11 03:23:00,
2013-01-10 22:28:00,23.8,21.4,30.61,North,11,0.0,0.0,90,0.00,,SKC,0.01,VWS V14.00,2013-01-11 03:28:00,
2013-01-10 22:30:00,23.9,21.5,30.61,North,11,0.0,0.0,90,0.00,,SCT,0.01,VWS V14.00,2013-01-11 03:30:00,
2013-01-10 22:33:00,23.8,21.4,30.61,North,11,0.0,0.0,90,0.00,,SKC,0.01,VWS V14.00,2013-01-11 03:33:00,
2013-01-10 22:38:00,23.6,21.3,30.60,North,11,0.0,0.0,91,0.00,,SKC,0.01,VWS V14.00,2013-01-11 03:38:00,
2013-01-10 22:43:00,23.6,21.2,30.60,North,11,0.0,0.0,90,0.00,,SKC,0.01,VWS V14.00,2013-01-11 03:43:00,
2013-01-10 22:48:00,23.6,21.2,30.60,North,11,0.0,0.0,90,0.00,,SKC,0.01,VWS V14.00,2013-01-11 03:48:00,
2013-01-10 22:53:00,23.2,20.7,30.60,North,11,0.0,0.0,90,0.00,,SKC,0.01,VWS V14.00,2013-01-11 03:53:00,
2013-01-10 22:58:00,23.0,20.7,30.60,North,11,0.0,0.0,91,0.00,,SKC,0.01,VWS V14.00,2013-01-11 03:58:00,
2013-01-10 23:00:00,23.0,20.6,30.60,North,11,0.0,0.0,90,0.00,,SCT,0.01,VWS V14.00,2013-01-11 04:00:00,
2013-01-10 23:03:00,22.8,20.5,30.60,North,11,0.0,0.0,91,0.00,,SKC,0.01,VWS V14.00,2013-01-11 04:03:00,
2013-01-10 23:08:00,22.6,20.3,30.59,North,11,0.0,0.0,91,0.00,,SKC,0.01,VWS V14.00,2013-01-11 04:08:00,
2013-01-10 23:13:00,22.3,20.0,30.59,North,11,0.0,0.0,91,0.00,,SKC,0.01,VWS V14.00,2013-01-11 04:13:00,
2013-01-10 23:19:00,22.1,19.8,30.59,North,11,0.0,0.0,91,0.00,,SKC,0.01,VWS V14.00,2013-01-11 04:19:00,
2013-01-10 23:24:00,21.9,19.7,30.59,North,11,0.0,0.0,91,0.00,,SKC,0.01,VWS V14.00,2013-01-11 04:24:00,
2013-01-10 23:29:00,21.8,19.6,30.59,North,11,0.0,0.0,91,0.00,,SKC,0.01,VWS V14.00,2013-01-11 04:29:00,
2013-01-10 23:30:00,21.9,19.7,30.59,North,11,0.0,0.0,91,0.00,,SCT,0.01,VWS V14.00,2013-01-11 04:30:00,
2013-01-10 23:34:00,21.8,19.6,30.59,North,11,0.0,0.0,91,0.00,,SKC,0.01,VWS V14.00,2013-01-11 04:34:00,
2013-01-10 23:39:00,21.6,19.4,30.59,North,11,0.0,0.0,91,0.00,,SKC,0.01,VWS V14.00,2013-01-11 04:39:00,
2013-01-10 23:44:00,21.5,19.3,30.59,North,11,0.0,0.0,91,0.00,,SKC,0.01,VWS V14.00,2013-01-11 04:44:00,
2013-01-10 23:49:00,21.4,19.2,30.59,North,11,0.0,0.0,91,0.00,,SKC,0.01,VWS V14.00,2013-01-11 04:49:00,
2013-01-10 23:54:00,21.1,19.0,30.59,North,11,0.0,0.0,91,0.00,,SKC,0.01,VWS V14.00,2013-01-11 04:54:00,